createdAt,value
2023-03-03T00:01:53.039Z,17.85
2023-03-03T00:04:20.403Z,19.75
2023-03-03T00:06:47.684Z,19.33
2023-03-03T00:09:14.979Z,17.08
2023-03-03T00:11:42.372Z,15.65
2023-03-03T00:14:19.638Z,19.52
2023-03-03T00:16:49.248Z,16.77
2023-03-03T00:19:18.753Z,17.08
2023-03-03T00:21:46.788Z,16.55
2023-03-03T00:24:34.052Z,16.17
2023-03-03T00:27:02.050Z,15.82
2023-03-03T00:29:51.556Z,16.35
2023-03-03T00:32:38.765Z,15.80
2023-03-03T00:35:26.025Z,14.30
2023-03-03T00:37:56.756Z,15.00
2023-03-03T00:40:26.017Z,14.00
2023-03-03T00:42:57.354Z,14.18
2023-03-03T00:45:27.995Z,13.02
2023-03-03T00:47:56.071Z,13.50
2023-03-03T00:50:32.299Z,13.00
2023-03-03T00:53:19.736Z,12.63
2023-03-03T00:55:47.710Z,11.10
2023-03-03T00:58:15.466Z,11.82
2023-03-03T01:00:43.441Z,11.82
2023-03-03T01:03:14.099Z,11.73
2023-03-03T01:05:41.797Z,12.15
2023-03-03T01:08:09.273Z,11.75
2023-03-03T01:10:38.832Z,11.38
2023-03-03T01:13:07.348Z,11.60
2023-03-03T01:15:43.292Z,11.98
2023-03-03T01:18:11.869Z,11.23
2023-03-03T01:20:39.591Z,12.15
2023-03-03T01:23:07.332Z,12.88
2023-03-03T01:25:34.656Z,12.48
2023-03-03T01:28:01.977Z,10.82
2023-03-03T01:30:29.543Z,12.90
2023-03-03T01:32:56.805Z,13.30
2023-03-03T01:35:24.346Z,13.93
2023-03-03T01:37:51.753Z,13.98
2023-03-03T01:40:20.775Z,14.18
2023-03-03T01:42:48.143Z,12.95
2023-03-03T01:45:35.348Z,12.60
2023-03-03T01:48:05.494Z,13.43
2023-03-03T01:50:36.941Z,13.27
2023-03-03T01:53:07.476Z,13.98
2023-03-03T01:55:36.920Z,14.98
2023-03-03T01:58:14.609Z,13.38
2023-03-03T02:00:42.961Z,15.27
2023-03-03T02:03:11.106Z,16.55
2023-03-03T02:05:39.099Z,15.40
2023-03-03T02:08:08.378Z,15.05
2023-03-03T02:10:35.849Z,14.75
2023-03-03T02:13:03.166Z,14.27
2023-03-03T02:15:33.105Z,14.80
2023-03-03T02:18:04.374Z,14.57
2023-03-03T02:21:04.345Z,15.52
2023-03-03T02:24:11.065Z,14.07
2023-03-03T02:26:41.455Z,15.02
2023-03-03T02:29:10.126Z,15.48
2023-03-03T02:31:38.748Z,15.48
2023-03-03T02:34:06.688Z,13.98
2023-03-03T02:36:35.423Z,16.48
2023-03-03T02:39:42.135Z,15.27
2023-03-03T02:42:16.954Z,13.73
2023-03-03T02:44:44.100Z,15.93
2023-03-03T02:47:11.070Z,14.35
2023-03-03T02:49:38.055Z,15.55
2023-03-03T02:52:09.782Z,16.05
2023-03-03T02:54:38.035Z,15.20
2023-03-03T02:57:06.009Z,15.02
2023-03-03T02:59:33.404Z,14.73
2023-03-03T03:02:00.761Z,14.82
2023-03-03T03:04:28.249Z,16.02
2023-03-03T03:06:55.936Z,17.02
2023-03-03T03:09:25.370Z,15.00
2023-03-03T03:11:52.454Z,16.10
2023-03-03T03:14:19.614Z,15.82
2023-03-03T03:16:46.604Z,16.45
2023-03-03T03:19:19.897Z,16.40
2023-03-03T03:22:01.282Z,16.92
2023-03-03T03:24:29.606Z,15.03
2023-03-03T03:26:56.640Z,16.52
2023-03-03T03:29:23.667Z,17.15
2023-03-03T03:31:50.580Z,18.38
2023-03-03T03:34:17.530Z,16.13
2023-03-03T03:36:47.036Z,16.60
2023-03-03T03:39:14.371Z,18.63
2023-03-03T03:41:41.404Z,16.27
2023-03-03T03:44:08.315Z,18.35
2023-03-03T03:46:36.605Z,19.25
2023-03-03T03:49:07.952Z,18.65
2023-03-03T03:51:35.690Z,19.98
2023-03-03T03:54:02.656Z,17.90
2023-03-03T03:56:29.596Z,20.52
2023-03-03T03:58:56.567Z,18.63
2023-03-03T04:01:23.548Z,18.17
2023-03-03T04:03:50.509Z,18.85
2023-03-03T04:06:17.501Z,20.33
2023-03-03T04:08:44.478Z,22.45
2023-03-03T04:11:11.437Z,19.90
2023-03-03T04:13:38.377Z,17.92
2023-03-03T04:16:05.894Z,19.20
2023-03-03T04:18:32.884Z,19.45
2023-03-03T04:21:00.802Z,17.73
2023-03-03T04:23:27.824Z,18.05
2023-03-03T04:25:54.824Z,19.27
2023-03-03T04:28:22.376Z,18.63
2023-03-03T04:30:49.411Z,18.02
2023-03-03T04:33:16.386Z,20.20
2023-03-03T04:35:43.446Z,21.33
2023-03-03T04:38:10.421Z,20.67
2023-03-03T04:40:37.587Z,19.92
2023-03-03T04:43:04.576Z,21.90
2023-03-03T04:45:31.555Z,20.80
2023-03-03T04:47:58.759Z,20.75
2023-03-03T04:50:25.763Z,20.33
2023-03-03T04:52:52.793Z,20.13
2023-03-03T04:55:20.054Z,20.88
2023-03-03T04:57:47.107Z,21.63
2023-03-03T05:00:14.865Z,19.58
2023-03-03T05:02:42.060Z,21.10
2023-03-03T05:05:11.713Z,20.88
2023-03-03T05:07:38.714Z,20.75
2023-03-03T05:10:06.849Z,18.58
2023-03-03T05:12:34.209Z,20.10
2023-03-03T05:15:02.409Z,20.88
2023-03-03T05:17:29.614Z,20.27
2023-03-03T05:19:57.420Z,22.88
2023-03-03T05:22:27.295Z,21.25
2023-03-03T05:24:54.277Z,20.08
2023-03-03T05:27:21.315Z,19.73
2023-03-03T05:29:48.369Z,20.50
2023-03-03T05:32:15.734Z,20.02
2023-03-03T05:34:43.190Z,20.65
2023-03-03T05:37:10.455Z,21.85
2023-03-03T05:39:37.503Z,20.42
2023-03-03T05:42:04.771Z,19.00
2023-03-03T05:44:31.859Z,18.33
2023-03-03T05:46:59.354Z,18.60
2023-03-03T05:49:26.923Z,16.65
2023-03-03T05:51:59.231Z,18.98
2023-03-03T05:54:26.271Z,15.50
2023-03-03T05:56:53.325Z,16.48
2023-03-03T05:59:20.775Z,17.95
2023-03-03T06:01:47.915Z,17.60
2023-03-03T06:04:14.950Z,16.88
2023-03-03T06:06:41.998Z,16.93
2023-03-03T06:09:13.668Z,18.02
2023-03-03T06:11:41.964Z,17.77
2023-03-03T06:14:08.919Z,17.42
2023-03-03T06:16:36.226Z,15.98
2023-03-03T06:19:03.386Z,16.95
2023-03-03T06:21:30.344Z,17.33
2023-03-03T06:23:57.383Z,14.70
2023-03-03T06:26:24.361Z,13.30
2023-03-03T06:28:54.112Z,16.00
2023-03-03T06:31:21.941Z,15.83
2023-03-03T06:33:49.082Z,15.77
2023-03-03T06:36:22.278Z,13.18
2023-03-03T06:38:49.393Z,14.77
2023-03-03T06:41:18.229Z,17.08
2023-03-03T06:43:45.262Z,16.00
2023-03-03T06:46:12.335Z,14.20
2023-03-03T06:48:41.496Z,15.03
2023-03-03T06:51:40.048Z,14.93
2023-03-03T06:54:16.510Z,15.07
2023-03-03T06:56:44.921Z,15.17
2023-03-03T06:59:19.708Z,13.23
2023-03-03T07:01:48.929Z,13.35
2023-03-03T07:04:35.852Z,14.37
2023-03-03T07:07:38.192Z,26.77
2023-03-03T07:10:16.460Z,16.07
2023-03-03T07:12:43.580Z,13.23
2023-03-03T07:15:17.703Z,15.10
2023-03-03T07:17:50.517Z,12.37
2023-03-03T07:20:39.341Z,13.50
2023-03-03T07:23:25.958Z,11.37
2023-03-03T07:25:53.167Z,13.40
2023-03-03T07:28:27.568Z,13.50
2023-03-03T07:30:56.654Z,13.23
2023-03-03T07:33:37.046Z,13.07
2023-03-03T07:36:07.469Z,13.70
2023-03-03T07:38:40.901Z,12.63
2023-03-03T07:41:20.923Z,13.07
2023-03-03T07:44:27.656Z,13.37
2023-03-03T07:49:41.624Z,12.90
2023-03-03T07:52:30.434Z,13.33
2023-03-03T07:55:01.202Z,13.10
2023-03-03T07:57:40.852Z,13.43
2023-03-03T08:00:50.276Z,13.17
2023-03-03T08:03:25.677Z,11.50
2023-03-03T08:08:34.867Z,13.90
2023-03-03T08:11:14.351Z,12.10
2023-03-03T08:13:46.230Z,11.20
2023-03-03T08:16:38.070Z,12.83
2023-03-03T08:19:14.656Z,14.17
2023-03-03T08:21:41.756Z,13.10
2023-03-03T08:24:12.906Z,11.47
2023-03-03T08:26:40.047Z,12.10
2023-03-03T08:29:11.722Z,10.50
2023-03-03T08:32:08.077Z,11.37
2023-03-03T08:34:36.756Z,11.13
2023-03-03T08:37:05.481Z,12.50
2023-03-03T08:39:33.079Z,12.77
2023-03-03T08:42:00.088Z,10.87
2023-03-03T08:44:27.122Z,11.47
2023-03-03T08:46:54.666Z,12.27
2023-03-03T08:49:22.113Z,11.63
2023-03-03T08:51:53.418Z,10.83
2023-03-03T08:54:20.501Z,11.90
2023-03-03T08:56:47.493Z,11.83
2023-03-03T08:59:16.887Z,12.70
2023-03-03T09:01:45.628Z,12.10
2023-03-03T09:04:13.893Z,11.70
2023-03-03T09:06:45.115Z,10.50
2023-03-03T09:09:12.200Z,11.77
2023-03-03T09:11:40.441Z,10.53
2023-03-03T09:14:12.279Z,11.03
2023-03-03T09:16:41.943Z,11.43
2023-03-03T09:19:46.562Z,10.83
2023-03-03T09:22:29.494Z,10.00
2023-03-03T09:24:59.095Z,10.60
2023-03-03T09:27:52.320Z,10.67
2023-03-03T09:30:46.658Z,10.57
2023-03-03T09:33:40.501Z,11.03
2023-03-03T09:36:29.040Z,10.27
2023-03-03T09:38:57.750Z,10.47
2023-03-03T09:42:04.481Z,9.73
2023-03-03T09:45:11.784Z,10.23
2023-03-03T09:48:18.494Z,9.80
2023-03-03T09:59:31.835Z,11.03
2023-03-03T10:10:59.351Z,8.73
2023-03-03T10:16:48.306Z,8.33
2023-03-03T10:25:12.239Z,7.90
2023-03-03T10:28:05.012Z,7.37
2023-03-03T10:31:15.540Z,7.93
2023-03-03T10:34:14.606Z,7.37
2023-03-03T10:37:09.336Z,7.93
2023-03-03T10:40:16.025Z,8.97
2023-03-03T10:46:02.094Z,8.48
2023-03-03T10:49:08.795Z,7.67
2023-03-03T10:55:02.343Z,7.70
2023-03-03T11:03:42.554Z,7.13
2023-03-03T11:12:17.809Z,8.57
2023-03-03T11:15:07.932Z,6.73
2023-03-03T11:18:14.701Z,6.90
2023-03-03T11:21:07.600Z,6.30
2023-03-03T11:24:14.421Z,7.63
2023-03-03T11:27:06.894Z,6.83
2023-03-03T11:30:13.780Z,7.30
2023-03-03T11:33:07.841Z,6.13
2023-03-03T11:36:14.646Z,6.47
2023-03-03T11:39:02.043Z,5.37
2023-03-03T11:41:36.295Z,5.83
2023-03-03T11:44:37.346Z,6.20
2023-03-03T11:47:32.135Z,7.27
2023-03-03T11:50:28.983Z,5.67
2023-03-03T11:53:35.684Z,6.03
2023-03-03T11:56:23.869Z,3.97
2023-03-03T11:59:30.641Z,4.27
2023-03-03T12:02:14.416Z,4.30
2023-03-03T12:04:46.923Z,3.30
2023-03-03T12:07:43.074Z,2.80
2023-03-03T12:15:53.796Z,2.70
2023-03-03T12:19:00.520Z,2.50
2023-03-03T12:24:33.055Z,3.17
2023-03-03T12:27:39.741Z,3.57
2023-03-03T12:33:23.169Z,2.90
2023-03-03T12:36:10.341Z,2.90
2023-03-03T12:38:41.860Z,2.37
2023-03-03T12:41:22.809Z,3.17
2023-03-03T12:44:09.967Z,3.63
2023-03-03T12:46:57.233Z,5.50
2023-03-03T12:49:26.473Z,4.20
2023-03-03T12:52:13.753Z,3.43
2023-03-03T12:55:00.926Z,3.13
2023-03-03T12:57:48.153Z,2.13
2023-03-03T13:00:35.320Z,2.73
2023-03-03T13:03:30.348Z,2.50
2023-03-03T13:06:18.849Z,2.20
2023-03-03T13:09:11.807Z,2.30
2023-03-03T13:11:53.913Z,2.30
2023-03-03T13:15:00.733Z,2.20
2023-03-03T13:20:37.071Z,2.80
2023-03-03T13:23:24.274Z,2.40
2023-03-03T13:25:54.542Z,2.60
2023-03-03T13:28:27.496Z,3.03
2023-03-03T13:30:58.988Z,2.17
2023-03-03T13:33:29.301Z,2.50
2023-03-03T13:36:03.470Z,2.90
2023-03-03T13:38:32.246Z,3.93
2023-03-03T13:41:19.907Z,2.80
2023-03-03T13:43:53.102Z,2.70
2023-03-03T13:46:40.302Z,2.90
2023-03-03T13:49:27.487Z,6.97
2023-03-03T13:52:14.735Z,3.43
2023-03-03T13:55:03.971Z,3.63
2023-03-03T13:58:10.752Z,3.33
2023-03-03T14:04:36.090Z,3.30
2023-03-03T14:09:55.866Z,2.80
2023-03-03T14:12:44.819Z,3.17
2023-03-03T14:15:26.302Z,3.17
2023-03-03T14:18:13.533Z,3.30
2023-03-03T14:20:43.914Z,2.80
2023-03-03T14:23:13.909Z,3.10
2023-03-03T14:26:01.101Z,3.43
2023-03-03T14:28:30.083Z,3.23
2023-03-03T14:30:58.418Z,3.60
2023-03-03T14:33:31.538Z,3.77
2023-03-03T14:36:25.081Z,3.87
2023-03-03T14:38:52.163Z,3.60
2023-03-03T14:41:22.141Z,3.80
2023-03-03T14:44:00.211Z,3.93
2023-03-03T14:47:00.568Z,3.90
2023-03-03T14:49:33.911Z,3.40
2023-03-03T14:52:31.273Z,3.83
2023-03-03T14:55:01.001Z,4.10
2023-03-03T14:57:47.570Z,3.40
2023-03-03T15:00:36.593Z,4.07
2023-03-03T15:03:27.256Z,3.40
2023-03-03T15:05:58.200Z,4.37
2023-03-03T15:08:32.757Z,5.47
2023-03-03T15:11:23.733Z,4.07
2023-03-03T15:13:50.740Z,3.37
2023-03-03T15:16:23.010Z,4.17
2023-03-03T15:19:20.602Z,4.27
2023-03-03T15:21:59.228Z,4.57
2023-03-03T15:24:58.861Z,4.67
2023-03-03T15:27:38.380Z,6.30
2023-03-03T15:30:22.589Z,7.57
2023-03-03T15:33:17.165Z,6.60
2023-03-03T15:36:24.097Z,6.80
2023-03-03T15:39:19.486Z,7.23
2023-03-03T15:42:14.658Z,5.75
2023-03-03T15:45:21.541Z,7.63
2023-03-03T15:48:22.562Z,7.10
2023-03-03T15:51:30.740Z,5.90
2023-03-03T15:54:37.499Z,11.80
2023-03-03T16:00:22.389Z,7.22
2023-03-03T16:02:58.920Z,7.73
2023-03-03T16:05:34.190Z,6.80
2023-03-03T16:08:41.080Z,6.78
2023-03-03T16:11:45.019Z,7.37
2023-03-03T16:14:52.326Z,7.13
2023-03-03T16:20:21.650Z,6.25
2023-03-03T16:23:28.449Z,6.77
2023-03-03T16:26:25.123Z,8.20
2023-03-03T16:29:19.035Z,7.67
2023-03-03T16:32:25.791Z,7.17
2023-03-03T16:35:03.024Z,7.53
2023-03-03T16:37:59.627Z,7.27
2023-03-03T16:40:51.323Z,7.13
2023-03-03T16:43:43.974Z,7.30
2023-03-03T16:46:31.474Z,6.67
2023-03-03T16:49:35.188Z,6.93
2023-03-03T16:52:29.466Z,18.53
2023-03-03T16:55:05.645Z,10.53
2023-03-03T16:57:59.593Z,7.97
2023-03-03T17:00:35.260Z,8.87
2023-03-03T17:03:43.389Z,7.63
2023-03-03T17:06:50.431Z,8.10
2023-03-03T17:09:47.167Z,8.23
2023-03-03T17:12:42.200Z,9.00
2023-03-03T17:15:55.306Z,8.57
2023-03-03T17:19:02.058Z,7.97
2023-03-03T17:22:09.060Z,10.23
2023-03-03T17:25:16.171Z,9.07
2023-03-03T17:28:23.056Z,8.53
2023-03-03T17:31:22.704Z,8.70
2023-03-03T17:34:16.336Z,9.37
2023-03-03T17:37:23.171Z,8.13
2023-03-03T17:40:30.330Z,8.47
2023-03-03T17:43:23.741Z,9.30
2023-03-03T17:45:57.279Z,8.70
2023-03-03T17:48:55.356Z,9.47
2023-03-03T17:52:07.455Z,8.27
2023-03-03T17:55:04.853Z,10.07
2023-03-03T17:58:02.888Z,8.77
2023-03-03T18:01:16.459Z,10.43
2023-03-03T18:04:26.942Z,10.87
2023-03-03T18:07:27.419Z,11.83
2023-03-03T18:10:34.420Z,11.63
2023-03-03T18:13:41.197Z,11.00
2023-03-03T18:16:48.562Z,12.40
2023-03-03T18:20:03.745Z,12.73
2023-03-03T18:22:52.156Z,11.50
2023-03-03T18:25:57.856Z,14.07
2023-03-03T18:28:57.632Z,13.05
2023-03-03T18:32:04.435Z,20.90
2023-03-03T18:35:14.147Z,19.67
2023-03-03T18:37:45.367Z,10.10
2023-03-03T18:40:33.704Z,11.20
2023-03-03T18:43:40.521Z,9.27
2023-03-03T18:46:47.593Z,10.13
2023-03-03T18:49:15.751Z,10.07
2023-03-03T18:52:22.657Z,9.70
2023-03-03T18:55:29.413Z,10.07
2023-03-03T18:58:36.401Z,11.33
2023-03-03T19:01:43.786Z,9.13
2023-03-03T19:04:35.418Z,9.57
2023-03-03T19:07:17.091Z,9.40
2023-03-03T19:10:14.525Z,9.67
2023-03-03T19:13:01.428Z,9.57
2023-03-03T19:15:51.664Z,9.77
2023-03-03T19:18:28.199Z,9.63
2023-03-03T19:21:35.058Z,9.73
2023-03-03T19:24:06.326Z,9.77
2023-03-03T19:26:52.905Z,8.70
2023-03-03T19:29:52.964Z,8.97
2023-03-03T19:32:59.873Z,10.23
2023-03-03T19:36:02.310Z,9.47
2023-03-03T19:39:09.490Z,9.40
2023-03-03T19:42:16.288Z,9.80
2023-03-03T19:45:23.128Z,11.10
2023-03-03T19:48:26.572Z,8.93
2023-03-03T19:51:21.607Z,8.03
2023-03-03T19:54:18.606Z,8.13
2023-03-03T19:57:06.072Z,8.33
2023-03-03T19:59:57.564Z,8.33
2023-03-03T20:03:04.958Z,8.50
2023-03-03T20:06:16.162Z,8.40
2023-03-03T20:09:25.387Z,8.27
2023-03-03T20:12:32.262Z,8.40
2023-03-03T20:15:24.820Z,9.90
2023-03-03T20:18:31.888Z,31.33
2023-03-03T20:21:16.503Z,22.50
2023-03-03T20:24:23.434Z,20.27
2023-03-03T20:27:14.500Z,17.23
2023-03-03T20:30:21.323Z,12.80
2023-03-03T20:33:28.065Z,8.87
2023-03-03T20:36:23.684Z,8.83
2023-03-03T20:39:13.836Z,8.85
2023-03-03T20:42:20.578Z,10.20
2023-03-03T20:47:57.251Z,7.83
2023-03-03T20:51:04.022Z,7.45
2023-03-03T20:54:10.843Z,8.67
2023-03-03T20:57:17.781Z,7.93
2023-03-03T21:00:24.496Z,8.27
2023-03-03T21:03:31.276Z,8.33
2023-03-03T21:06:02.361Z,8.43
2023-03-03T21:09:17.795Z,8.70
2023-03-03T21:11:45.022Z,8.13
2023-03-03T21:14:31.389Z,8.53
2023-03-03T21:17:02.753Z,9.60
2023-03-03T21:19:33.290Z,9.70
2023-03-03T21:22:02.477Z,9.35
2023-03-03T21:24:54.736Z,10.17
2023-03-03T21:27:37.300Z,9.57
2023-03-03T21:30:20.631Z,8.90
2023-03-03T21:32:49.480Z,9.50
2023-03-03T21:35:21.801Z,8.67
2023-03-03T21:38:09.366Z,9.50
2023-03-03T21:40:36.722Z,8.93
2023-03-03T21:43:03.899Z,9.77
2023-03-03T21:45:31.006Z,10.13
2023-03-03T21:48:05.500Z,10.50
2023-03-03T21:50:36.437Z,10.82
2023-03-03T21:53:06.535Z,11.37
2023-03-03T21:55:33.691Z,10.17
2023-03-03T21:58:01.030Z,11.10
2023-03-03T22:00:28.237Z,10.63
2023-03-03T22:02:55.598Z,11.33
2023-03-03T22:05:23.251Z,11.53
2023-03-03T22:07:51.390Z,11.00
2023-03-03T22:10:18.471Z,10.00
2023-03-03T22:12:45.524Z,11.13
2023-03-03T22:15:12.770Z,10.73
2023-03-03T22:17:40.823Z,11.80
2023-03-03T22:20:09.258Z,11.07
2023-03-03T22:22:36.525Z,11.10
2023-03-03T22:25:03.779Z,12.73
2023-03-03T22:27:30.994Z,11.37
2023-03-03T22:30:00.266Z,11.20
2023-03-03T22:32:27.671Z,12.37
2023-03-03T22:34:54.681Z,11.27
2023-03-03T22:37:21.872Z,12.80
2023-03-03T22:39:48.990Z,12.00
2023-03-03T22:42:16.014Z,14.00
2023-03-03T22:44:45.691Z,13.43
2023-03-03T22:47:15.567Z,13.67
2023-03-03T22:49:42.595Z,12.23
2023-03-03T22:52:09.649Z,11.90
2023-03-03T22:54:36.817Z,13.03
2023-03-03T22:57:03.960Z,13.97
2023-03-03T22:59:33.636Z,12.87
2023-03-03T23:02:03.852Z,14.63
2023-03-03T23:04:33.072Z,14.03
2023-03-03T23:07:04.184Z,13.37
2023-03-03T23:09:35.329Z,13.80
2023-03-03T23:12:02.499Z,13.27
2023-03-03T23:14:29.858Z,14.00
2023-03-03T23:16:56.916Z,13.60
2023-03-03T23:19:24.089Z,14.27
2023-03-03T23:21:51.194Z,13.00
2023-03-03T23:24:18.548Z,15.03
2023-03-03T23:26:45.666Z,15.07
2023-03-03T23:29:12.843Z,13.23
2023-03-03T23:31:39.963Z,14.77
2023-03-03T23:34:07.226Z,14.50
2023-03-03T23:36:34.248Z,15.03
2023-03-03T23:39:01.282Z,14.23
2023-03-03T23:41:28.333Z,14.67
2023-03-03T23:43:55.333Z,14.47
2023-03-03T23:46:22.422Z,14.13
2023-03-03T23:48:49.440Z,13.43
2023-03-03T23:51:16.446Z,14.00
2023-03-03T23:53:43.474Z,15.67
2023-03-03T23:56:10.477Z,13.87
2023-03-03T23:58:37.560Z,14.00
